sensor_id;sensor_type;location;lat;lon;timestamp;P1;durP1;ratioP1;P2;durP2;ratioP2
22068;SDS011;13887;57.196;-2.100;2023-09-19T00:00:44;11.53;;;11.13;;
22068;SDS011;13887;57.196;-2.100;2023-09-19T00:03:14;11.87;;;11.47;;
22068;SDS011;13887;57.196;-2.100;2023-09-19T00:05:43;12.00;;;11.60;;
22068;SDS011;13887;57.196;-2.100;2023-09-19T00:08:12;11.90;;;11.50;;
22068;SDS011;13887;57.196;-2.100;2023-09-19T00:10:40;11.57;;;11.17;;
22068;SDS011;13887;57.196;-2.100;2023-09-19T00:13:09;11.50;;;11.10;;
22068;SDS011;13887;57.196;-2.100;2023-09-19T00:15:45;11.03;;;10.73;;
22068;SDS011;13887;57.196;-2.100;2023-09-19T00:18:19;11.67;;;11.27;;
22068;SDS011;13887;57.196;-2.100;2023-09-19T00:20:49;11.50;;;11.10;;
22068;SDS011;13887;57.196;-2.100;2023-09-19T00:23:18;11.43;;;11.03;;
22068;SDS011;13887;57.196;-2.100;2023-09-19T00:25:46;11.43;;;11.03;;
22068;SDS011;13887;57.196;-2.100;2023-09-19T00:28:15;11.50;;;11.10;;
22068;SDS011;13887;57.196;-2.100;2023-09-19T00:30:44;11.50;;;11.10;;
22068;SDS011;13887;57.196;-2.100;2023-09-19T00:33:12;11.33;;;10.97;;
22068;SDS011;13887;57.196;-2.100;2023-09-19T00:36:01;11.57;;;11.17;;
22068;SDS011;13887;57.196;-2.100;2023-09-19T00:38:31;12.10;;;11.70;;
22068;SDS011;13887;57.196;-2.100;2023-09-19T00:40:59;11.43;;;11.03;;
22068;SDS011;13887;57.196;-2.100;2023-09-19T00:43:29;11.50;;;11.10;;
22068;SDS011;13887;57.196;-2.100;2023-09-19T00:46:01;11.37;;;10.97;;
22068;SDS011;13887;57.196;-2.100;2023-09-19T00:48:31;11.47;;;11.07;;
22068;SDS011;13887;57.196;-2.100;2023-09-19T00:50:59;11.63;;;11.23;;
22068;SDS011;13887;57.196;-2.100;2023-09-19T00:53:31;11.60;;;11.20;;
22068;SDS011;13887;57.196;-2.100;2023-09-19T00:56:01;11.90;;;11.50;;
22068;SDS011;13887;57.196;-2.100;2023-09-19T00:58:34;11.47;;;11.07;;
22068;SDS011;13887;57.196;-2.100;2023-09-19T01:01:04;11.53;;;11.13;;
22068;SDS011;13887;57.196;-2.100;2023-09-19T01:03:36;11.63;;;11.23;;
22068;SDS011;13887;57.196;-2.100;2023-09-19T01:06:05;11.13;;;10.83;;
22068;SDS011;13887;57.196;-2.100;2023-09-19T01:08:32;11.23;;;10.93;;
22068;SDS011;13887;57.196;-2.100;2023-09-19T01:11:01;11.53;;;11.13;;
22068;SDS011;13887;57.196;-2.100;2023-09-19T01:14:06;11.40;;;11.00;;
22068;SDS011;13887;57.196;-2.100;2023-09-19T01:17:05;11.40;;;11.00;;
22068;SDS011;13887;57.196;-2.100;2023-09-19T01:23:23;11.53;;;11.13;;
22068;SDS011;13887;57.196;-2.100;2023-09-19T01:26:02;11.53;;;11.13;;
22068;SDS011;13887;57.196;-2.100;2023-09-19T01:31:33;11.80;;;11.40;;
22068;SDS011;13887;57.196;-2.100;2023-09-19T01:34:04;12.07;;;11.67;;
22068;SDS011;13887;57.196;-2.100;2023-09-19T01:36:34;11.83;;;11.43;;
22068;SDS011;13887;57.196;-2.100;2023-09-19T01:39:04;11.77;;;11.37;;
22068;SDS011;13887;57.196;-2.100;2023-09-19T01:44:35;11.50;;;11.10;;
22068;SDS011;13887;57.196;-2.100;2023-09-19T01:47:13;11.47;;;11.07;;
22068;SDS011;13887;57.196;-2.100;2023-09-19T01:52:54;11.30;;;10.97;;
22068;SDS011;13887;57.196;-2.100;2023-09-19T01:55:27;11.90;;;11.50;;
22068;SDS011;13887;57.196;-2.100;2023-09-19T01:58:12;11.80;;;11.40;;
22068;SDS011;13887;57.196;-2.100;2023-09-19T02:00:44;11.70;;;11.30;;
22068;SDS011;13887;57.196;-2.100;2023-09-19T02:03:19;11.70;;;11.30;;
22068;SDS011;13887;57.196;-2.100;2023-09-19T02:05:50;11.47;;;11.07;;
22068;SDS011;13887;57.196;-2.100;2023-09-19T02:08:18;11.70;;;11.30;;
22068;SDS011;13887;57.196;-2.100;2023-09-19T02:10:46;11.60;;;11.20;;
22068;SDS011;13887;57.196;-2.100;2023-09-19T02:13:16;11.53;;;11.13;;
22068;SDS011;13887;57.196;-2.100;2023-09-19T02:15:46;11.50;;;11.10;;
22068;SDS011;13887;57.196;-2.100;2023-09-19T02:18:13;11.90;;;11.50;;
22068;SDS011;13887;57.196;-2.100;2023-09-19T02:20:43;11.70;;;11.30;;
22068;SDS011;13887;57.196;-2.100;2023-09-19T02:23:11;11.80;;;11.40;;
22068;SDS011;13887;57.196;-2.100;2023-09-19T02:25:39;11.57;;;11.17;;
22068;SDS011;13887;57.196;-2.100;2023-09-19T02:28:07;11.80;;;11.40;;
22068;SDS011;13887;57.196;-2.100;2023-09-19T02:30:35;11.93;;;11.53;;
22068;SDS011;13887;57.196;-2.100;2023-09-19T02:33:03;11.63;;;11.23;;
22068;SDS011;13887;57.196;-2.100;2023-09-19T02:35:32;11.60;;;11.20;;
22068;SDS011;13887;57.196;-2.100;2023-09-19T02:38:02;12.03;;;11.63;;
22068;SDS011;13887;57.196;-2.100;2023-09-19T02:40:33;12.13;;;11.73;;
22068;SDS011;13887;57.196;-2.100;2023-09-19T02:43:03;11.57;;;11.17;;
22068;SDS011;13887;57.196;-2.100;2023-09-19T02:45:31;11.57;;;11.17;;
22068;SDS011;13887;57.196;-2.100;2023-09-19T02:47:59;11.53;;;11.13;;
22068;SDS011;13887;57.196;-2.100;2023-09-19T02:50:27;11.07;;;10.77;;
22068;SDS011;13887;57.196;-2.100;2023-09-19T02:52:54;11.47;;;11.07;;
22068;SDS011;13887;57.196;-2.100;2023-09-19T02:55:22;11.50;;;11.10;;
22068;SDS011;13887;57.196;-2.100;2023-09-19T02:57:50;11.93;;;11.53;;
22068;SDS011;13887;57.196;-2.100;2023-09-19T03:00:19;11.77;;;11.37;;
22068;SDS011;13887;57.196;-2.100;2023-09-19T03:02:52;11.80;;;11.40;;
22068;SDS011;13887;57.196;-2.100;2023-09-19T03:05:22;11.70;;;11.30;;
22068;SDS011;13887;57.196;-2.100;2023-09-19T03:07:51;12.13;;;11.73;;
22068;SDS011;13887;57.196;-2.100;2023-09-19T03:10:20;12.20;;;11.80;;
22068;SDS011;13887;57.196;-2.100;2023-09-19T03:12:48;11.77;;;11.37;;
22068;SDS011;13887;57.196;-2.100;2023-09-19T03:15:17;12.00;;;11.60;;
22068;SDS011;13887;57.196;-2.100;2023-09-19T03:17:47;11.53;;;11.13;;
22068;SDS011;13887;57.196;-2.100;2023-09-19T03:20:19;11.93;;;11.53;;
22068;SDS011;13887;57.196;-2.100;2023-09-19T03:22:49;11.93;;;11.53;;
22068;SDS011;13887;57.196;-2.100;2023-09-19T03:25:17;12.37;;;11.97;;
22068;SDS011;13887;57.196;-2.100;2023-09-19T03:27:48;12.50;;;12.10;;
22068;SDS011;13887;57.196;-2.100;2023-09-19T03:30:16;11.87;;;11.47;;
22068;SDS011;13887;57.196;-2.100;2023-09-19T03:32:47;12.10;;;11.70;;
22068;SDS011;13887;57.196;-2.100;2023-09-19T03:35:18;11.67;;;11.27;;
22068;SDS011;13887;57.196;-2.100;2023-09-19T03:37:47;12.00;;;11.60;;
22068;SDS011;13887;57.196;-2.100;2023-09-19T03:40:14;12.20;;;11.80;;
22068;SDS011;13887;57.196;-2.100;2023-09-19T03:42:42;12.13;;;11.73;;
22068;SDS011;13887;57.196;-2.100;2023-09-19T03:45:12;12.00;;;11.60;;
22068;SDS011;13887;57.196;-2.100;2023-09-19T03:47:45;11.90;;;11.50;;
22068;SDS011;13887;57.196;-2.100;2023-09-19T03:50:18;11.90;;;11.50;;
22068;SDS011;13887;57.196;-2.100;2023-09-19T03:52:45;11.97;;;11.57;;
22068;SDS011;13887;57.196;-2.100;2023-09-19T03:55:12;12.10;;;11.70;;
22068;SDS011;13887;57.196;-2.100;2023-09-19T03:57:40;12.10;;;11.70;;
22068;SDS011;13887;57.196;-2.100;2023-09-19T04:00:08;12.10;;;11.70;;
22068;SDS011;13887;57.196;-2.100;2023-09-19T04:02:39;13.00;;;12.60;;
22068;SDS011;13887;57.196;-2.100;2023-09-19T04:05:07;12.57;;;12.17;;
22068;SDS011;13887;57.196;-2.100;2023-09-19T04:07:35;12.30;;;11.90;;
22068;SDS011;13887;57.196;-2.100;2023-09-19T04:10:02;12.20;;;11.80;;
22068;SDS011;13887;57.196;-2.100;2023-09-19T04:12:30;12.40;;;12.00;;
22068;SDS011;13887;57.196;-2.100;2023-09-19T04:15:00;12.20;;;11.80;;
22068;SDS011;13887;57.196;-2.100;2023-09-19T04:17:28;12.03;;;11.63;;
22068;SDS011;13887;57.196;-2.100;2023-09-19T04:19:58;12.00;;;11.60;;
22068;SDS011;13887;57.196;-2.100;2023-09-19T04:22:26;12.20;;;11.80;;
22068;SDS011;13887;57.196;-2.100;2023-09-19T04:24:53;12.57;;;12.17;;
22068;SDS011;13887;57.196;-2.100;2023-09-19T04:27:20;12.07;;;11.67;;
22068;SDS011;13887;57.196;-2.100;2023-09-19T04:29:48;12.20;;;11.80;;
22068;SDS011;13887;57.196;-2.100;2023-09-19T04:32:16;12.57;;;12.17;;
22068;SDS011;13887;57.196;-2.100;2023-09-19T04:34:44;12.07;;;11.67;;
22068;SDS011;13887;57.196;-2.100;2023-09-19T04:37:11;12.37;;;11.97;;
22068;SDS011;13887;57.196;-2.100;2023-09-19T04:39:42;12.73;;;12.33;;
22068;SDS011;13887;57.196;-2.100;2023-09-19T04:42:09;12.67;;;12.27;;
22068;SDS011;13887;57.196;-2.100;2023-09-19T04:44:41;12.80;;;12.40;;
22068;SDS011;13887;57.196;-2.100;2023-09-19T04:47:09;12.70;;;12.30;;
22068;SDS011;13887;57.196;-2.100;2023-09-19T04:49:39;12.93;;;12.53;;
22068;SDS011;13887;57.196;-2.100;2023-09-19T04:52:06;12.77;;;12.37;;
22068;SDS011;13887;57.196;-2.100;2023-09-19T04:54:33;13.20;;;12.80;;
22068;SDS011;13887;57.196;-2.100;2023-09-19T04:57:00;13.50;;;13.00;;
22068;SDS011;13887;57.196;-2.100;2023-09-19T04:59:28;13.23;;;12.80;;
22068;SDS011;13887;57.196;-2.100;2023-09-19T05:01:55;13.60;;;13.10;;
22068;SDS011;13887;57.196;-2.100;2023-09-19T05:04:23;13.33;;;12.87;;
22068;SDS011;13887;57.196;-2.100;2023-09-19T05:06:50;13.50;;;13.00;;
22068;SDS011;13887;57.196;-2.100;2023-09-19T05:09:17;13.43;;;12.93;;
22068;SDS011;13887;57.196;-2.100;2023-09-19T05:11:46;13.13;;;12.73;;
22068;SDS011;13887;57.196;-2.100;2023-09-19T05:14:15;12.87;;;12.47;;
22068;SDS011;13887;57.196;-2.100;2023-09-19T05:16:42;12.90;;;12.50;;
22068;SDS011;13887;57.196;-2.100;2023-09-19T05:19:09;12.77;;;12.37;;
22068;SDS011;13887;57.196;-2.100;2023-09-19T05:21:38;12.97;;;12.57;;
22068;SDS011;13887;57.196;-2.100;2023-09-19T05:24:06;12.67;;;12.27;;
22068;SDS011;13887;57.196;-2.100;2023-09-19T05:26:36;13.40;;;12.90;;
22068;SDS011;13887;57.196;-2.100;2023-09-19T05:29:04;13.10;;;12.70;;
22068;SDS011;13887;57.196;-2.100;2023-09-19T05:31:31;13.27;;;12.87;;
22068;SDS011;13887;57.196;-2.100;2023-09-19T05:33:59;12.70;;;12.30;;
22068;SDS011;13887;57.196;-2.100;2023-09-19T05:36:27;13.70;;;13.20;;
22068;SDS011;13887;57.196;-2.100;2023-09-19T05:38:56;13.07;;;12.67;;
22068;SDS011;13887;57.196;-2.100;2023-09-19T05:41:23;13.07;;;12.67;;
22068;SDS011;13887;57.196;-2.100;2023-09-19T05:43:51;13.67;;;13.17;;
22068;SDS011;13887;57.196;-2.100;2023-09-19T05:46:18;13.47;;;12.97;;
22068;SDS011;13887;57.196;-2.100;2023-09-19T05:48:46;12.73;;;12.33;;
22068;SDS011;13887;57.196;-2.100;2023-09-19T05:51:14;13.10;;;12.70;;
22068;SDS011;13887;57.196;-2.100;2023-09-19T05:53:41;12.87;;;12.47;;
22068;SDS011;13887;57.196;-2.100;2023-09-19T05:56:10;13.23;;;12.83;;
22068;SDS011;13887;57.196;-2.100;2023-09-19T05:58:37;13.60;;;13.10;;
22068;SDS011;13887;57.196;-2.100;2023-09-19T06:01:05;13.43;;;12.93;;
22068;SDS011;13887;57.196;-2.100;2023-09-19T06:03:34;13.80;;;13.30;;
22068;SDS011;13887;57.196;-2.100;2023-09-19T06:06:02;13.33;;;12.90;;
22068;SDS011;13887;57.196;-2.100;2023-09-19T06:08:29;13.27;;;12.83;;
22068;SDS011;13887;57.196;-2.100;2023-09-19T06:10:58;13.00;;;12.60;;
22068;SDS011;13887;57.196;-2.100;2023-09-19T06:13:29;12.70;;;12.30;;
22068;SDS011;13887;57.196;-2.100;2023-09-19T06:15:57;13.03;;;12.63;;
22068;SDS011;13887;57.196;-2.100;2023-09-19T06:18:25;12.43;;;12.03;;
22068;SDS011;13887;57.196;-2.100;2023-09-19T06:20:52;12.60;;;12.20;;
22068;SDS011;13887;57.196;-2.100;2023-09-19T06:23:20;13.20;;;12.80;;
22068;SDS011;13887;57.196;-2.100;2023-09-19T06:25:47;13.03;;;12.63;;
22068;SDS011;13887;57.196;-2.100;2023-09-19T06:28:15;13.20;;;12.80;;
22068;SDS011;13887;57.196;-2.100;2023-09-19T06:30:45;12.90;;;12.50;;
22068;SDS011;13887;57.196;-2.100;2023-09-19T06:33:12;12.67;;;12.27;;
22068;SDS011;13887;57.196;-2.100;2023-09-19T06:35:42;13.07;;;12.67;;
22068;SDS011;13887;57.196;-2.100;2023-09-19T06:38:13;12.73;;;12.33;;
22068;SDS011;13887;57.196;-2.100;2023-09-19T06:40:42;13.10;;;12.70;;
22068;SDS011;13887;57.196;-2.100;2023-09-19T06:43:09;12.70;;;12.30;;
22068;SDS011;13887;57.196;-2.100;2023-09-19T06:45:37;12.77;;;12.37;;
22068;SDS011;13887;57.196;-2.100;2023-09-19T06:48:05;13.20;;;12.80;;
22068;SDS011;13887;57.196;-2.100;2023-09-19T06:50:33;13.50;;;13.00;;
22068;SDS011;13887;57.196;-2.100;2023-09-19T06:53:01;12.80;;;12.40;;
22068;SDS011;13887;57.196;-2.100;2023-09-19T06:55:29;13.27;;;12.83;;
22068;SDS011;13887;57.196;-2.100;2023-09-19T06:57:59;13.03;;;12.63;;
22068;SDS011;13887;57.196;-2.100;2023-09-19T07:00:26;12.70;;;12.30;;
22068;SDS011;13887;57.196;-2.100;2023-09-19T07:02:58;12.77;;;12.37;;
22068;SDS011;13887;57.196;-2.100;2023-09-19T07:05:31;12.90;;;12.50;;
22068;SDS011;13887;57.196;-2.100;2023-09-19T07:07:59;11.10;;;10.80;;
22068;SDS011;13887;57.196;-2.100;2023-09-19T07:10:28;12.87;;;12.47;;
22068;SDS011;13887;57.196;-2.100;2023-09-19T07:12:59;12.67;;;12.27;;
22068;SDS011;13887;57.196;-2.100;2023-09-19T07:15:27;12.50;;;12.10;;
22068;SDS011;13887;57.196;-2.100;2023-09-19T07:17:56;12.40;;;12.00;;
22068;SDS011;13887;57.196;-2.100;2023-09-19T07:20:24;12.10;;;11.70;;
22068;SDS011;13887;57.196;-2.100;2023-09-19T07:22:56;12.73;;;12.33;;
22068;SDS011;13887;57.196;-2.100;2023-09-19T07:25:30;12.57;;;12.17;;
22068;SDS011;13887;57.196;-2.100;2023-09-19T07:27:58;12.70;;;12.30;;
22068;SDS011;13887;57.196;-2.100;2023-09-19T07:30:28;12.37;;;11.97;;
22068;SDS011;13887;57.196;-2.100;2023-09-19T07:32:56;12.90;;;12.50;;
22068;SDS011;13887;57.196;-2.100;2023-09-19T07:35:24;12.67;;;12.27;;
22068;SDS011;13887;57.196;-2.100;2023-09-19T07:37:52;12.60;;;12.20;;
22068;SDS011;13887;57.196;-2.100;2023-09-19T07:40:20;12.60;;;12.20;;
22068;SDS011;13887;57.196;-2.100;2023-09-19T07:42:48;12.20;;;11.80;;
22068;SDS011;13887;57.196;-2.100;2023-09-19T07:45:15;12.80;;;12.40;;
22068;SDS011;13887;57.196;-2.100;2023-09-19T07:48:03;12.60;;;12.20;;
22068;SDS011;13887;57.196;-2.100;2023-09-19T07:50:33;12.33;;;11.93;;
22068;SDS011;13887;57.196;-2.100;2023-09-19T07:53:04;11.87;;;11.47;;
22068;SDS011;13887;57.196;-2.100;2023-09-19T07:55:32;12.37;;;11.97;;
22068;SDS011;13887;57.196;-2.100;2023-09-19T07:58:01;12.20;;;11.80;;
22068;SDS011;13887;57.196;-2.100;2023-09-19T08:00:31;12.23;;;11.83;;
22068;SDS011;13887;57.196;-2.100;2023-09-19T08:02:59;11.80;;;11.40;;
22068;SDS011;13887;57.196;-2.100;2023-09-19T08:05:34;12.00;;;11.60;;
22068;SDS011;13887;57.196;-2.100;2023-09-19T08:08:01;11.87;;;11.47;;
22068;SDS011;13887;57.196;-2.100;2023-09-19T08:10:28;12.23;;;11.83;;
22068;SDS011;13887;57.196;-2.100;2023-09-19T08:13:02;12.03;;;11.63;;
22068;SDS011;13887;57.196;-2.100;2023-09-19T08:15:29;12.20;;;11.80;;
22068;SDS011;13887;57.196;-2.100;2023-09-19T08:17:56;11.80;;;11.40;;
22068;SDS011;13887;57.196;-2.100;2023-09-19T08:20:24;11.93;;;11.53;;
22068;SDS011;13887;57.196;-2.100;2023-09-19T08:22:52;11.70;;;11.30;;
22068;SDS011;13887;57.196;-2.100;2023-09-19T08:25:23;11.70;;;11.30;;
22068;SDS011;13887;57.196;-2.100;2023-09-19T08:27:54;12.27;;;11.87;;
22068;SDS011;13887;57.196;-2.100;2023-09-19T08:30:24;11.60;;;11.20;;
22068;SDS011;13887;57.196;-2.100;2023-09-19T08:32:57;12.00;;;11.60;;
22068;SDS011;13887;57.196;-2.100;2023-09-19T08:35:28;11.90;;;11.50;;
22068;SDS011;13887;57.196;-2.100;2023-09-19T08:37:56;12.00;;;11.60;;
22068;SDS011;13887;57.196;-2.100;2023-09-19T08:40:23;11.63;;;11.23;;
22068;SDS011;13887;57.196;-2.100;2023-09-19T08:42:52;12.13;;;11.73;;
22068;SDS011;13887;57.196;-2.100;2023-09-19T08:45:21;11.70;;;11.30;;
22068;SDS011;13887;57.196;-2.100;2023-09-19T08:48:03;11.90;;;11.50;;
22068;SDS011;13887;57.196;-2.100;2023-09-19T08:50:50;12.17;;;11.77;;
22068;SDS011;13887;57.196;-2.100;2023-09-19T08:56:06;12.23;;;11.83;;
22068;SDS011;13887;57.196;-2.100;2023-09-19T09:01:31;12.70;;;12.30;;
22068;SDS011;13887;57.196;-2.100;2023-09-19T09:03:59;11.40;;;11.00;;
22068;SDS011;13887;57.196;-2.100;2023-09-19T09:06:29;11.83;;;11.43;;
22068;SDS011;13887;57.196;-2.100;2023-09-19T09:08:56;11.27;;;10.93;;
22068;SDS011;13887;57.196;-2.100;2023-09-19T09:11:24;11.70;;;11.30;;
22068;SDS011;13887;57.196;-2.100;2023-09-19T09:13:51;12.23;;;11.83;;
22068;SDS011;13887;57.196;-2.100;2023-09-19T09:16:19;12.17;;;11.77;;
22068;SDS011;13887;57.196;-2.100;2023-09-19T09:18:46;11.87;;;11.47;;
22068;SDS011;13887;57.196;-2.100;2023-09-19T09:21:21;11.93;;;11.53;;
22068;SDS011;13887;57.196;-2.100;2023-09-19T09:23:49;12.17;;;11.77;;
22068;SDS011;13887;57.196;-2.100;2023-09-19T09:27:04;11.97;;;11.57;;
22068;SDS011;13887;57.196;-2.100;2023-09-19T09:29:05;12.10;;;11.70;;
22068;SDS011;13887;57.196;-2.100;2023-09-19T09:31:32;12.67;;;12.27;;
22068;SDS011;13887;57.196;-2.100;2023-09-19T09:34:00;12.50;;;12.10;;
22068;SDS011;13887;57.196;-2.100;2023-09-19T09:36:37;11.50;;;11.10;;
22068;SDS011;13887;57.196;-2.100;2023-09-19T09:39:08;11.50;;;11.10;;
22068;SDS011;13887;57.196;-2.100;2023-09-19T09:41:46;11.67;;;11.27;;
22068;SDS011;13887;57.196;-2.100;2023-09-19T09:44:16;11.73;;;11.33;;
22068;SDS011;13887;57.196;-2.100;2023-09-19T09:46:49;11.67;;;11.27;;
22068;SDS011;13887;57.196;-2.100;2023-09-19T09:49:22;12.50;;;12.10;;
22068;SDS011;13887;57.196;-2.100;2023-09-19T09:52:02;12.23;;;11.83;;
22068;SDS011;13887;57.196;-2.100;2023-09-19T09:54:37;12.43;;;12.03;;
22068;SDS011;13887;57.196;-2.100;2023-09-19T09:57:08;12.40;;;12.00;;
22068;SDS011;13887;57.196;-2.100;2023-09-19T09:59:48;12.43;;;12.03;;
22068;SDS011;13887;57.196;-2.100;2023-09-19T10:02:28;12.53;;;12.13;;
22068;SDS011;13887;57.196;-2.100;2023-09-19T10:05:00;13.03;;;12.63;;
22068;SDS011;13887;57.196;-2.100;2023-09-19T10:07:48;12.87;;;12.47;;
22068;SDS011;13887;57.196;-2.100;2023-09-19T10:13:06;12.27;;;11.87;;
22068;SDS011;13887;57.196;-2.100;2023-09-19T10:15:34;12.17;;;11.77;;
22068;SDS011;13887;57.196;-2.100;2023-09-19T10:18:04;11.80;;;11.40;;
22068;SDS011;13887;57.196;-2.100;2023-09-19T10:20:32;11.87;;;11.47;;
22068;SDS011;13887;57.196;-2.100;2023-09-19T10:23:04;11.83;;;11.43;;
22068;SDS011;13887;57.196;-2.100;2023-09-19T10:25:40;11.80;;;11.40;;
22068;SDS011;13887;57.196;-2.100;2023-09-19T10:28:12;12.90;;;12.50;;
22068;SDS011;13887;57.196;-2.100;2023-09-19T10:30:41;12.30;;;11.90;;
22068;SDS011;13887;57.196;-2.100;2023-09-19T10:33:14;12.47;;;12.07;;
22068;SDS011;13887;57.196;-2.100;2023-09-19T10:35:45;12.30;;;11.90;;
22068;SDS011;13887;57.196;-2.100;2023-09-19T10:38:15;11.67;;;11.27;;
22068;SDS011;13887;57.196;-2.100;2023-09-19T10:40:51;11.47;;;11.07;;
22068;SDS011;13887;57.196;-2.100;2023-09-19T10:43:20;11.77;;;11.37;;
22068;SDS011;13887;57.196;-2.100;2023-09-19T10:45:52;11.90;;;11.50;;
22068;SDS011;13887;57.196;-2.100;2023-09-19T10:48:21;10.97;;;10.67;;
22068;SDS011;13887;57.196;-2.100;2023-09-19T10:53:55;11.60;;;11.20;;
22068;SDS011;13887;57.196;-2.100;2023-09-19T10:56:29;11.00;;;10.70;;
22068;SDS011;13887;57.196;-2.100;2023-09-19T10:59:09;11.50;;;11.10;;
22068;SDS011;13887;57.196;-2.100;2023-09-19T11:01:48;11.17;;;10.87;;
22068;SDS011;13887;57.196;-2.100;2023-09-19T11:04:26;11.33;;;11.00;;
22068;SDS011;13887;57.196;-2.100;2023-09-19T11:07:05;11.13;;;10.83;;
22068;SDS011;13887;57.196;-2.100;2023-09-19T11:15:07;11.60;;;11.20;;
22068;SDS011;13887;57.196;-2.100;2023-09-19T11:17:38;11.80;;;11.40;;
22068;SDS011;13887;57.196;-2.100;2023-09-19T11:30:34;10.90;;;10.60;;
22068;SDS011;13887;57.196;-2.100;2023-09-19T11:36:35;11.17;;;10.87;;
22068;SDS011;13887;57.196;-2.100;2023-09-19T11:46:27;11.17;;;10.87;;
22068;SDS011;13887;57.196;-2.100;2023-09-19T11:48:55;10.53;;;10.23;;
22068;SDS011;13887;57.196;-2.100;2023-09-19T11:51:42;10.90;;;10.60;;
22068;SDS011;13887;57.196;-2.100;2023-09-19T11:54:11;10.80;;;10.50;;
22068;SDS011;13887;57.196;-2.100;2023-09-19T11:56:45;11.33;;;10.97;;
22068;SDS011;13887;57.196;-2.100;2023-09-19T11:59:38;11.30;;;11.00;;
22068;SDS011;13887;57.196;-2.100;2023-09-19T12:02:06;11.70;;;11.30;;
22068;SDS011;13887;57.196;-2.100;2023-09-19T12:04:36;11.50;;;11.10;;
22068;SDS011;13887;57.196;-2.100;2023-09-19T12:07:08;11.47;;;11.07;;
22068;SDS011;13887;57.196;-2.100;2023-09-19T12:09:43;10.47;;;10.17;;
22068;SDS011;13887;57.196;-2.100;2023-09-19T12:14:49;10.87;;;10.57;;
22068;SDS011;13887;57.196;-2.100;2023-09-19T12:17:17;11.00;;;10.70;;
22068;SDS011;13887;57.196;-2.100;2023-09-19T12:19:51;12.00;;;11.60;;
22068;SDS011;13887;57.196;-2.100;2023-09-19T12:22:19;10.93;;;10.63;;
22068;SDS011;13887;57.196;-2.100;2023-09-19T12:24:49;10.80;;;10.50;;
22068;SDS011;13887;57.196;-2.100;2023-09-19T12:27:17;10.97;;;10.67;;
22068;SDS011;13887;57.196;-2.100;2023-09-19T12:29:45;10.80;;;10.50;;
22068;SDS011;13887;57.196;-2.100;2023-09-19T12:32:33;10.60;;;10.30;;
22068;SDS011;13887;57.196;-2.100;2023-09-19T12:35:07;10.70;;;10.40;;
22068;SDS011;13887;57.196;-2.100;2023-09-19T12:37:42;11.13;;;10.83;;
22068;SDS011;13887;57.196;-2.100;2023-09-19T12:40:20;10.77;;;10.47;;
22068;SDS011;13887;57.196;-2.100;2023-09-19T12:42:56;10.60;;;10.30;;
22068;SDS011;13887;57.196;-2.100;2023-09-19T12:45:31;11.33;;;11.00;;
22068;SDS011;13887;57.196;-2.100;2023-09-19T12:48:18;10.43;;;10.13;;
22068;SDS011;13887;57.196;-2.100;2023-09-19T12:51:08;10.67;;;10.37;;
22068;SDS011;13887;57.196;-2.100;2023-09-19T12:53:40;11.60;;;11.20;;
22068;SDS011;13887;57.196;-2.100;2023-09-19T12:56:14;11.50;;;11.10;;
22068;SDS011;13887;57.196;-2.100;2023-09-19T12:58:50;11.27;;;10.97;;
22068;SDS011;13887;57.196;-2.100;2023-09-19T13:01:21;11.27;;;10.90;;
22068;SDS011;13887;57.196;-2.100;2023-09-19T13:06:38;10.80;;;10.50;;
22068;SDS011;13887;57.196;-2.100;2023-09-19T13:09:10;10.83;;;10.53;;
22068;SDS011;13887;57.196;-2.100;2023-09-19T13:11:38;10.10;;;9.80;;
22068;SDS011;13887;57.196;-2.100;2023-09-19T13:14:26;10.93;;;10.63;;
22068;SDS011;13887;57.196;-2.100;2023-09-19T13:17:07;10.70;;;10.40;;
22068;SDS011;13887;57.196;-2.100;2023-09-19T13:22:41;10.97;;;10.67;;
22068;SDS011;13887;57.196;-2.100;2023-09-19T13:25:16;11.10;;;10.80;;
22068;SDS011;13887;57.196;-2.100;2023-09-19T13:27:47;10.90;;;10.60;;
22068;SDS011;13887;57.196;-2.100;2023-09-19T13:30:18;11.30;;;10.97;;
22068;SDS011;13887;57.196;-2.100;2023-09-19T13:32:46;10.87;;;10.57;;
22068;SDS011;13887;57.196;-2.100;2023-09-19T13:35:14;11.40;;;11.00;;
22068;SDS011;13887;57.196;-2.100;2023-09-19T13:37:43;11.03;;;10.73;;
22068;SDS011;13887;57.196;-2.100;2023-09-19T13:40:14;11.10;;;10.80;;
22068;SDS011;13887;57.196;-2.100;2023-09-19T13:42:42;11.77;;;11.37;;
22068;SDS011;13887;57.196;-2.100;2023-09-19T13:45:09;11.57;;;11.17;;
22068;SDS011;13887;57.196;-2.100;2023-09-19T13:47:39;11.23;;;10.90;;
22068;SDS011;13887;57.196;-2.100;2023-09-19T13:50:07;11.37;;;10.97;;
22068;SDS011;13887;57.196;-2.100;2023-09-19T13:52:35;11.23;;;10.93;;
22068;SDS011;13887;57.196;-2.100;2023-09-19T13:55:03;11.40;;;11.00;;
22068;SDS011;13887;57.196;-2.100;2023-09-19T13:57:32;11.20;;;10.90;;
22068;SDS011;13887;57.196;-2.100;2023-09-19T14:00:00;10.87;;;10.57;;
22068;SDS011;13887;57.196;-2.100;2023-09-19T14:02:37;11.50;;;11.10;;
22068;SDS011;13887;57.196;-2.100;2023-09-19T14:05:06;11.60;;;11.20;;
22068;SDS011;13887;57.196;-2.100;2023-09-19T14:07:34;11.00;;;10.70;;
22068;SDS011;13887;57.196;-2.100;2023-09-19T14:10:01;10.87;;;10.57;;
22068;SDS011;13887;57.196;-2.100;2023-09-19T14:12:29;11.37;;;11.00;;
22068;SDS011;13887;57.196;-2.100;2023-09-19T14:14:57;10.97;;;10.67;;
22068;SDS011;13887;57.196;-2.100;2023-09-19T14:17:24;10.57;;;10.27;;
22068;SDS011;13887;57.196;-2.100;2023-09-19T14:19:52;10.97;;;10.67;;
22068;SDS011;13887;57.196;-2.100;2023-09-19T14:22:20;11.00;;;10.70;;
22068;SDS011;13887;57.196;-2.100;2023-09-19T14:24:47;10.30;;;10.00;;
22068;SDS011;13887;57.196;-2.100;2023-09-19T14:27:14;11.10;;;10.80;;
22068;SDS011;13887;57.196;-2.100;2023-09-19T14:29:42;10.80;;;10.50;;
22068;SDS011;13887;57.196;-2.100;2023-09-19T14:32:09;10.67;;;10.37;;
22068;SDS011;13887;57.196;-2.100;2023-09-19T14:34:36;10.90;;;10.60;;
22068;SDS011;13887;57.196;-2.100;2023-09-19T14:37:08;10.97;;;10.67;;
22068;SDS011;13887;57.196;-2.100;2023-09-19T14:39:36;11.43;;;11.03;;
22068;SDS011;13887;57.196;-2.100;2023-09-19T14:42:06;11.07;;;10.77;;
22068;SDS011;13887;57.196;-2.100;2023-09-19T14:44:36;11.50;;;11.10;;
22068;SDS011;13887;57.196;-2.100;2023-09-19T14:47:04;11.10;;;10.80;;
22068;SDS011;13887;57.196;-2.100;2023-09-19T14:49:35;10.87;;;10.57;;
22068;SDS011;13887;57.196;-2.100;2023-09-19T14:52:07;13.80;;;13.30;;
22068;SDS011;13887;57.196;-2.100;2023-09-19T14:54:35;11.13;;;10.83;;
22068;SDS011;13887;57.196;-2.100;2023-09-19T14:57:04;10.90;;;10.60;;
22068;SDS011;13887;57.196;-2.100;2023-09-19T14:59:31;10.60;;;10.30;;
22068;SDS011;13887;57.196;-2.100;2023-09-19T15:01:59;10.37;;;10.07;;
22068;SDS011;13887;57.196;-2.100;2023-09-19T15:04:27;10.37;;;10.07;;
22068;SDS011;13887;57.196;-2.100;2023-09-19T15:06:54;10.63;;;10.33;;
22068;SDS011;13887;57.196;-2.100;2023-09-19T15:09:22;10.87;;;10.57;;
22068;SDS011;13887;57.196;-2.100;2023-09-19T15:11:53;11.10;;;10.80;;
22068;SDS011;13887;57.196;-2.100;2023-09-19T15:14:23;10.23;;;9.93;;
22068;SDS011;13887;57.196;-2.100;2023-09-19T15:16:51;11.13;;;10.83;;
22068;SDS011;13887;57.196;-2.100;2023-09-19T15:19:19;11.20;;;10.90;;
22068;SDS011;13887;57.196;-2.100;2023-09-19T15:21:46;10.97;;;10.67;;
22068;SDS011;13887;57.196;-2.100;2023-09-19T15:24:13;11.43;;;11.03;;
22068;SDS011;13887;57.196;-2.100;2023-09-19T15:26:41;10.50;;;10.20;;